Time;durP1;ratioP1;P1;durP2;ratioP2;P2;SDS_P1;SDS_P2;PMS_P1;PMS_P2;Temp;Humidity;BMP_temperature;BMP_pressure;BME280_temperature;BME280_humidity;BME280_pressure;Samples;Min_cycle;Max_cycle;Signal;HPM_P1;HPM_P2
2024/02/01 00:00:50;;;;;;;;;127.00;108.33;;;;;-1.00;100.00;100898.72;6271584;20;3701285;-44
2024/02/01 00:03:21;;;;;;;;;150.75;119.25;;;;;-0.75;100.00;100895.31;6273359;20;3712796;-45
2024/02/01 00:05:51;;;;;;;;;124.33;105.00;;;;;-0.57;100.00;100898.91;6274158;20;3706667;-45
2024/02/01 00:08:21;;;;;;;;;118.00;98.33;;;;;-1.23;100.00;100894.22;6274636;20;3695080;-45
2024/02/01 00:10:50;;;;;;;;;120.33;99.33;;;;;-1.45;100.00;100881.75;6272895;20;3703401;-44
2024/02/01 00:13:20;;;;;;;;;125.00;103.33;;;;;-1.46;100.00;100885.28;6274070;20;3682570;-43
2024/02/01 00:15:50;;;;;;;;;111.33;92.00;;;;;-0.80;100.00;100891.78;6275837;20;3685672;-44
2024/02/01 00:18:19;;;;;;;;;121.33;95.00;;;;;-0.88;100.00;100885.59;6272221;20;3697139;-44
2024/02/01 00:20:48;;;;;;;;;112.00;83.33;;;;;-0.42;100.00;100909.53;6308086;20;3686730;-45
2024/02/01 00:23:18;;;;;;;;;126.67;99.00;;;;;-0.40;100.00;100907.75;6272765;20;3712774;-44
2024/02/01 00:25:48;;;;;;;;;119.67;95.33;;;;;-0.61;100.00;100905.91;6273749;20;3700282;-45
2024/02/01 00:28:18;;;;;;;;;113.33;90.67;;;;;-0.79;100.00;100898.84;6275641;20;3698186;-46
2024/02/01 00:30:47;;;;;;;;;121.67;102.00;;;;;-0.63;100.00;100894.50;6272385;20;3697860;-43
2024/02/01 00:33:17;;;;;;;;;129.00;107.00;;;;;-0.39;100.00;100888.41;6275604;20;3710648;-45
2024/02/01 00:35:47;;;;;;;;;139.67;112.33;;;;;-0.76;100.00;100876.88;6274344;20;3711714;-44
2024/02/01 00:38:17;;;;;;;;;134.33;111.00;;;;;-0.80;100.00;100877.72;6275622;20;3703407;-45
2024/02/01 00:40:48;;;;;;;;;146.50;117.25;;;;;-0.63;100.00;100885.69;6273638;20;3727412;-46
2024/02/01 00:43:18;;;;;;;;;167.25;135.50;;;;;-0.65;100.00;100875.16;6272982;20;4505419;-46
2024/02/01 00:45:49;;;;;;;;;169.50;131.75;;;;;-0.94;100.00;100857.47;6274770;20;4487931;-45
2024/02/01 00:48:19;;;;;;;;;164.75;131.50;;;;;-0.94;100.00;100853.97;6272859;20;3729522;-44
2024/02/01 00:50:50;;;;;;;;;159.50;134.25;;;;;-0.94;100.00;100857.47;6270876;20;4509597;-44
2024/02/01 00:53:23;;;;;;;;;152.00;126.50;;;;;-0.33;100.00;100877.88;6272010;20;4523218;-45
2024/02/01 00:55:53;;;;;;;;;134.67;109.33;;;;;-0.27;100.00;100888.44;6273896;20;3714189;-44
2024/02/01 00:58:23;;;;;;;;;149.00;115.67;;;;;-0.12;100.00;100892.84;6274529;20;3726393;-44
2024/02/01 01:00:53;;;;;;;;;145.67;111.33;;;;;-0.12;100.00;100879.66;6271761;20;3714876;-46
2024/02/01 01:03:23;;;;;;;;;142.75;112.75;;;;;0.02;100.00;100887.59;6272659;20;3722214;-47
2024/02/01 01:05:53;;;;;;;;;138.00;105.00;;;;;-0.35;100.00;100873.47;6272998;20;3703418;-44
2024/02/01 01:08:23;;;;;;;;;144.00;111.33;;;;;-0.60;100.00;100856.72;6272753;20;3715360;-43
2024/02/01 01:10:54;;;;;;;;;162.75;127.25;;;;;-0.55;100.00;100839.16;6275337;20;3725467;-43
2024/02/01 01:13:24;;;;;;;;;143.00;114.67;;;;;0.09;100.00;100865.59;6304376;20;3713208;-44
2024/02/01 01:15:54;;;;;;;;;138.33;111.00;;;;;-0.10;100.00;100870.00;6274856;20;3719013;-44
2024/02/01 01:18:24;;;;;;;;;142.00;111.33;;;;;-0.14;100.00;100846.22;6275106;20;3710838;-43
2024/02/01 01:20:57;;;;;;;;;113.00;97.33;;;;;-0.58;100.00;100828.56;6275849;20;3699263;-44
2024/02/01 01:23:26;;;;;;;;;102.00;79.67;;;;;-0.06;100.00;100853.25;6273204;20;3669050;-44
2024/02/01 01:25:56;;;;;;;;;103.33;78.67;;;;;-0.41;100.00;100840.03;6306394;20;3689928;-44
2024/02/01 01:28:26;;;;;;;;;102.67;80.00;;;;;0.04;100.00;100834.81;6274792;20;3676307;-43
2024/02/01 01:30:56;;;;;;;;;110.33;87.67;;;;;0.25;100.00;100832.13;6276949;20;3698260;-43
2024/02/01 01:33:25;;;;;;;;;112.00;91.00;;;;;0.12;100.00;100828.63;6274623;20;3680526;-44
2024/02/01 01:35:55;;;;;;;;;131.67;101.00;;;;;0.35;100.00;100836.53;6272867;20;3701353;-43
2024/02/01 01:38:26;;;;;;;;;149.00;113.00;;;;;0.21;100.00;100831.28;6275615;20;3727472;-43
2024/02/01 01:40:57;;;;;;;;;142.50;120.25;;;;;0.55;100.00;100831.19;6303061;20;3728569;-44
2024/02/01 01:43:26;;;;;;;;;137.00;116.67;;;;;0.34;100.00;100833.88;6273231;20;3724205;-44
2024/02/01 01:46:04;;;;;;;;;120.00;100.33;;;;;0.26;100.00;100825.97;6270506;20;3695061;-45
2024/02/01 01:48:35;;;;;;;;;132.00;111.67;;;;;0.40;100.00;100823.31;6270249;20;3708704;-44
2024/02/01 01:51:07;;;;;;;;;162.25;123.00;;;;;0.78;100.00;100841.72;6267455;20;3731710;-45
2024/02/01 01:53:40;;;;;;;;;139.67;113.33;;;;;0.38;100.00;100822.44;6271094;20;3719085;-44
2024/02/01 01:56:11;;;;;;;;;134.00;110.00;;;;;0.87;100.00;100824.97;6272592;20;3708567;-45
2024/02/01 01:58:42;;;;;;;;;142.50;116.75;;;;;0.60;100.00;100810.94;6273225;20;3722150;-44
2024/02/01 02:01:13;;;;;;;;;140.50;114.00;;;;;0.77;100.00;100807.38;6304736;20;3711785;-44
2024/02/01 02:03:47;;;;;;;;;142.75;116.50;;;;;0.14;100.00;100795.19;6267600;20;3720105;-46
2024/02/01 02:06:18;;;;;;;;;110.75;90.25;;;;;0.18;100.00;100796.91;6304266;20;3696096;-45
2024/02/01 02:08:48;;;;;;;;;106.00;85.00;;;;;-0.04;100.00;100795.19;6306705;20;3699241;-47
2024/02/01 02:11:18;;;;;;;;;108.33;85.33;;;;;-0.12;100.00;100783.78;6273152;20;3696530;-47
2024/02/01 02:13:47;;;;;;;;;105.33;83.00;;;;;0.04;100.00;100788.16;6271511;20;3679490;-45
2024/02/01 02:16:17;;;;;;;;;111.33;92.67;;;;;0.33;100.00;100777.53;6275086;20;3688826;-45
2024/02/01 02:18:47;;;;;;;;;110.00;89.33;;;;;0.45;100.00;100768.72;6279087;20;3682655;-44
2024/02/01 02:21:18;;;;;;;;;118.67;96.67;;;;;0.52;100.00;100754.59;6280194;20;3678510;-44
2024/02/01 02:23:49;;;;;;;;;124.00;100.67;;;;;0.30;100.00;100759.06;6272243;20;3711694;-45
2024/02/01 02:26:19;;;;;;;;;120.33;107.00;;;;;0.32;100.00;100751.16;6275854;20;3699200;-45
2024/02/01 02:28:49;;;;;;;;;127.33;98.33;;;;;0.70;100.00;100758.94;6277805;20;3694118;-44
2024/02/01 02:31:19;;;;;;;;;128.00;106.33;;;;;0.44;100.00;100756.38;6278815;20;3713924;-45
2024/02/01 02:33:49;;;;;;;;;124.67;103.33;;;;;0.33;100.00;100744.97;6277653;20;3701432;-45
2024/02/01 02:36:19;;;;;;;;;111.00;92.33;;;;;0.26;100.00;100748.50;6277391;20;3695027;-44
2024/02/01 02:38:48;;;;;;;;;118.00;98.00;;;;;0.65;100.00;100745.72;6278883;20;3711726;-44
2024/02/01 02:41:18;;;;;;;;;110.00;87.33;;;;;-0.09;100.00;100733.59;6276213;20;3697128;-45
2024/02/01 02:43:48;;;;;;;;;121.00;98.33;;;;;0.10;100.00;100727.41;6275044;20;3704410;-44
2024/02/01 02:46:18;;;;;;;;;110.33;89.33;;;;;0.59;100.00;100735.19;6271091;20;3677328;-45
2024/02/01 02:48:47;;;;;;;;;96.33;73.33;;;;;1.04;100.00;100732.34;6275360;20;3659607;-45
2024/02/01 02:51:17;;;;;;;;;102.33;78.67;;;;;1.12;100.00;100724.34;6305692;20;3672120;-45
2024/02/01 02:53:47;;;;;;;;;103.00;73.00;;;;;0.98;100.00;100722.69;6272313;20;3682613;-45
2024/02/01 02:56:17;;;;;;;;;101.00;75.33;;;;;1.21;100.00;100721.63;6271769;20;3686099;-44
2024/02/01 02:58:47;;;;;;;;;101.00;75.67;;;;;1.22;100.00;100716.34;6303488;20;3683772;-46
2024/02/01 03:01:17;;;;;;;;;97.00;75.00;;;;;1.08;100.00;100719.09;6271926;20;3647149;-45
2024/02/01 03:03:46;;;;;;;;;91.33;72.00;;;;;1.30;100.00;100708.38;6305185;20;2887895;-44
2024/02/01 03:06:16;;;;;;;;;102.00;74.33;;;;;0.93;100.00;100716.53;6308654;20;3675380;-44
2024/02/01 03:08:46;;;;;;;;;96.33;73.00;;;;;0.97;100.00;100715.59;6274666;20;3641044;-44
2024/02/01 03:11:16;;;;;;;;;101.33;76.33;;;;;1.01;100.00;100708.56;6309915;20;3682591;-45
2024/02/01 03:13:46;;;;;;;;;107.00;78.33;;;;;1.33;100.00;100707.47;6275327;20;3691962;-45
2024/02/01 03:16:21;;;;;;;;;102.33;76.33;;;;;1.18;100.00;100703.16;6276120;20;3677370;-45
2024/02/01 03:18:51;;;;;;;;;92.67;70.00;;;;;1.42;100.00;100703.00;6308183;20;3646171;-45
2024/02/01 03:21:21;;;;;;;;;98.67;74.00;;;;;1.32;100.00;100701.31;6307549;20;3653401;-45
2024/02/01 03:23:51;;;;;;;;;92.67;71.00;;;;;1.35;100.00;100700.41;6309126;20;3651319;-44
2024/02/01 03:26:21;;;;;;;;;94.00;71.00;;;;;1.28;100.00;100715.44;6307841;20;3661720;-46
2024/02/01 03:28:52;;;;;;;;;98.67;74.67;;;;;1.49;100.00;100712.63;6308683;20;3662752;-44
2024/02/01 03:31:22;;;;;;;;;107.33;74.67;;;;;0.98;100.00;100698.88;6274973;20;3680457;-45
2024/02/01 03:33:51;;;;;;;;;96.00;73.33;;;;;0.98;100.00;100690.06;6274446;20;3654419;-46
2024/02/01 03:36:20;;;;;;;;;87.00;70.00;;;;;1.36;100.00;100687.13;6308617;20;2878420;-45
2024/02/01 03:38:50;;;;;;;;;99.67;72.67;;;;;1.52;100.00;100688.75;6277703;20;3670100;-47
2024/02/01 03:41:20;;;;;;;;;98.33;72.33;;;;;1.69;100.00;100685.13;6310477;20;3670141;-44
2024/02/01 03:43:49;;;;;;;;;96.67;72.67;;;;;1.69;100.00;100685.13;6274935;20;3659614;-46
2024/02/01 03:46:19;;;;;;;;;90.00;68.00;;;;;1.75;100.00;100691.22;6305016;20;3654426;-45
2024/02/01 03:48:49;;;;;;;;;108.00;90.33;;;;;1.43;100.00;100678.28;6306868;20;3688905;-45
2024/02/01 03:51:20;;;;;;;;;146.00;122.75;;;;;0.99;100.00;100682.13;6275881;20;3716029;-44
2024/02/01 03:53:51;;;;;;;;;145.50;118.00;;;;;1.10;100.00;100676.75;6271483;20;4492922;-49
2024/02/01 03:56:23;;;;;;;;;139.00;115.50;;;;;1.14;100.00;100680.28;6276819;20;4489820;-47
2024/02/01 03:58:54;;;;;;;;;105.00;82.67;;;;;0.95;100.00;100668.91;6276074;20;3682557;-44
2024/02/01 04:01:24;;;;;;;;;104.33;86.33;;;;;1.24;100.00;100674.91;6272550;20;3687720;-46
2024/02/01 04:03:58;;;;;;;;;108.33;83.00;;;;;1.22;100.00;100681.97;6273063;20;3699275;-46
2024/02/01 04:06:28;;;;;;;;;155.25;124.50;;;;;1.43;100.00;100685.34;6272918;20;4491921;-44
2024/02/01 04:08:58;;;;;;;;;118.00;94.00;;;;;0.91;100.00;100673.34;6304385;20;3676305;-46
2024/02/01 04:11:31;;;;;;;;;108.67;87.33;;;;;0.80;100.00;100667.25;6274200;20;3698208;-45
2024/02/01 04:14:01;;;;;;;;;111.00;92.33;;;;;0.77;100.00;100660.22;6274268;20;3686760;-49
2024/02/01 04:16:31;;;;;;;;;107.33;88.00;;;;;1.06;100.00;100665.31;6274334;20;3668989;-46
2024/02/01 04:19:01;;;;;;;;;104.67;85.00;;;;;1.09;100.00;100661.78;6273038;20;3689832;-45
2024/02/01 04:21:31;;;;;;;;;105.67;85.67;;;;;1.36;100.00;100658.03;6276192;20;3686816;-47
2024/02/01 04:24:02;;;;;;;;;112.33;89.00;;;;;1.43;100.00;100654.47;6271732;20;3703394;-46
2024/02/01 04:26:32;;;;;;;;;104.00;83.00;;;;;1.27;100.00;100650.19;6271786;20;3683682;-48
2024/02/01 04:29:02;;;;;;;;;101.33;81.00;;;;;1.18;100.00;100645.84;6273635;20;3664829;-45
2024/02/01 04:31:32;;;;;;;;;104.67;82.67;;;;;1.45;100.00;100655.34;6274874;20;3699207;-45
2024/02/01 04:34:02;;;;;;;;;103.33;83.33;;;;;1.42;100.00;100644.78;6274869;20;3692969;-46
2024/02/01 04:36:32;;;;;;;;;104.67;77.33;;;;;1.27;100.00;100642.25;6276453;20;3681535;-46
2024/02/01 04:39:03;;;;;;;;;104.33;85.00;;;;;1.40;100.00;100635.97;6271740;20;3704505;-45
2024/02/01 04:41:33;;;;;;;;;105.00;85.67;;;;;0.97;100.00;100635.41;6273592;20;3700301;-45
2024/02/01 04:44:05;;;;;;;;;102.00;79.33;;;;;0.92;100.00;100638.09;6276071;20;3679407;-46
2024/02/01 04:46:34;;;;;;;;;101.67;82.67;;;;;1.13;100.00;100630.88;6272384;20;3683585;-46
2024/02/01 04:49:11;;;;;;;;;114.33;97.67;;;;;1.24;100.00;100634.34;6273960;20;3676499;-46
2024/02/01 04:51:43;;;;;;;;;97.33;76.33;;;;;0.99;100.00;100631.88;6276067;20;3649790;-44
2024/02/01 04:54:12;;;;;;;;;102.33;80.67;;;;;1.42;100.00;100633.28;6304749;20;3680446;-45
2024/02/01 04:56:43;;;;;;;;;103.33;82.33;;;;;1.14;100.00;100630.03;6275266;20;3696274;-47
2024/02/01 04:59:13;;;;;;;;;101.67;74.33;;;;;0.79;100.00;100620.56;6277002;20;3683554;-45
2024/02/01 05:01:43;;;;;;;;;96.67;73.33;;;;;1.18;100.00;100634.38;6269942;20;3645236;-44
2024/02/01 05:04:13;;;;;;;;;102.67;81.67;;;;;0.75;100.00;100634.69;6306008;20;3690874;-45
2024/02/01 05:06:43;;;;;;;;;108.67;85.67;;;;;0.79;100.00;100626.75;6274519;20;3696045;-44
2024/02/01 05:09:27;;;;;;;;;104.00;79.67;;;;;0.95;100.00;100627.50;6276722;20;3696053;-45
2024/02/01 05:11:57;;;;;;;;;103.00;78.33;;;;;0.66;100.00;100630.34;6275343;20;3698186;-45
2024/02/01 05:14:27;;;;;;;;;100.67;81.00;;;;;0.49;100.00;100625.16;6305845;20;3680480;-45
2024/02/01 05:16:57;;;;;;;;;100.33;81.33;;;;;0.56;100.00;100628.66;6273319;20;3657595;-46
2024/02/01 05:19:26;;;;;;;;;106.67;79.67;;;;;0.54;100.00;100628.63;6303745;20;3682571;-45
2024/02/01 05:21:56;;;;;;;;;109.33;86.00;;;;;0.18;100.00;100617.34;6277594;20;3688849;-44
2024/02/01 05:24:28;;;;;;;;;109.00;83.00;;;;;0.60;100.00;100623.31;6268247;20;3701463;-45
2024/02/01 05:26:57;;;;;;;;;107.00;85.67;;;;;0.70;100.00;100618.00;6273985;20;3690899;-44
2024/02/01 05:29:27;;;;;;;;;101.00;75.33;;;;;0.62;100.00;100618.91;6275151;20;3684757;-46
2024/02/01 05:31:57;;;;;;;;;109.67;84.67;;;;;0.40;100.00;100612.00;6271625;20;3701321;-45
2024/02/01 05:34:27;;;;;;;;;110.00;92.33;;;;;1.07;100.00;100608.88;6273280;20;3697179;-45
2024/02/01 05:36:57;;;;;;;;;111.33;93.67;;;;;0.70;100.00;100604.78;6273105;20;3682660;-44
2024/02/01 05:39:29;;;;;;;;;110.67;94.00;;;;;0.42;100.00;100594.34;6272659;20;3675509;-45
2024/02/01 05:42:06;;;;;;;;;115.33;97.00;;;;;0.72;100.00;100597.72;6274612;20;3683731;-44
2024/02/01 05:44:36;;;;;;;;;114.33;90.33;;;;;1.18;100.00;100595.56;6270259;20;3707583;-45
2024/02/01 05:47:06;;;;;;;;;112.00;88.33;;;;;1.36;100.00;100607.78;6270246;20;3703527;-45
2024/02/01 05:49:36;;;;;;;;;100.67;85.33;;;;;1.56;100.00;100604.06;6274150;20;3661705;-43
2024/02/01 05:52:06;;;;;;;;;116.67;98.00;;;;;1.34;100.00;100609.53;6311274;20;3690934;-45
2024/02/01 05:54:36;;;;;;;;;113.33;91.00;;;;;1.35;100.00;100611.31;6277021;20;3701377;-44
2024/02/01 05:57:06;;;;;;;;;121.33;93.00;;;;;1.06;100.00;100609.78;6281359;20;3705454;-45
2024/02/01 05:59:36;;;;;;;;;117.00;99.67;;;;;0.95;100.00;100601.06;6280305;20;3681485;-44
2024/02/01 06:02:06;;;;;;;;;120.33;102.33;;;;;0.91;100.00;100594.03;6275176;20;3705485;-44
2024/02/01 06:04:36;;;;;;;;;110.00;93.33;;;;;0.74;100.00;100580.97;6276612;20;3694009;-43
2024/02/01 06:07:05;;;;;;;;;110.67;92.00;;;;;0.90;100.00;100579.09;6279869;20;3688952;-49
2024/02/01 06:09:35;;;;;;;;;127.00;96.33;;;;;1.23;100.00;100577.91;6277440;20;3688787;-43
2024/02/01 06:12:05;;;;;;;;;133.75;109.50;;;;;1.56;100.00;100582.91;6280447;20;4486703;-44
2024/02/01 06:14:35;;;;;;;;;129.00;109.00;;;;;1.62;100.00;100596.06;6279395;20;3723222;-45
2024/02/01 06:17:06;;;;;;;;;137.50;120.00;;;;;1.70;100.00;100595.06;6278565;20;3710798;-44
2024/02/01 06:19:36;;;;;;;;;131.25;105.75;;;;;1.18;100.00;100586.78;6277012;20;4486700;-47
2024/02/01 06:22:06;;;;;;;;;126.00;105.00;;;;;1.05;100.00;100575.41;6278107;20;3703484;-46
2024/02/01 06:24:36;;;;;;;;;120.33;91.00;;;;;1.57;100.00;100592.59;6277704;20;3688787;-45
2024/02/01 06:27:06;;;;;;;;;137.00;112.33;;;;;1.10;100.00;100584.19;6279194;20;3716911;-45
2024/02/01 06:29:37;;;;;;;;;128.33;113.33;;;;;0.93;100.00;100579.06;6278144;20;3716910;-45
2024/02/01 06:32:19;;;;;;;;;144.50;118.00;;;;;1.47;100.00;100589.16;6278392;20;4504550;-45
2024/02/01 06:34:57;;;;;;;;;107.67;93.67;;;;;1.57;100.00;100587.28;6309260;20;3681531;-44
2024/02/01 06:37:29;;;;;;;;;158.00;130.75;;;;;1.09;100.00;100582.44;6278540;20;4504498;-45
2024/02/01 06:40:10;;;;;;;;;104.00;86.33;;;;;1.25;100.00;100585.84;6279873;20;3682691;-44
2024/02/01 06:42:54;;;;;;;;;119.33;99.00;;;;;1.35;100.00;100581.34;6279608;20;3689860;-44
2024/02/01 06:45:29;;;;;;;;;157.00;121.50;;;;;0.99;100.00;100579.00;6274337;20;3718059;-45
2024/02/01 06:48:08;;;;;;;;;160.33;127.67;;;;;1.23;100.00;100569.97;6310037;20;3730524;-44
2024/02/01 06:51:10;;;;;;;;;187.75;153.50;;;;;1.52;100.00;100566.16;6278529;20;4482583;-44
2024/02/01 06:53:54;;;;;;;;;180.50;144.75;;;;;1.77;100.00;100572.06;6276544;20;4496074;-44
2024/02/01 06:56:48;;;;;;;;;157.25;123.50;;;;;1.92;100.00;100581.59;6275229;20;4491977;-45
2024/02/01 06:59:44;;;;;;;;;140.25;116.50;;;;;1.77;100.00;100572.06;6278293;20;4495065;-44
2024/02/01 07:02:24;;;;;;;;;135.50;109.50;;;;;1.79;100.00;100578.25;6275537;20;3723332;-45
2024/02/01 07:05:03;;;;;;;;;137.00;105.50;;;;;2.15;100.00;100573.38;6304496;20;3714899;-44
2024/02/01 07:07:42;;;;;;;;;118.33;96.67;;;;;1.93;100.00;100573.66;6276449;20;3689953;-46
2024/02/01 07:10:16;;;;;;;;;91.33;68.33;;;;;2.20;100.00;100571.53;6279517;20;3641919;-45
2024/02/01 07:15:35;;;;;;;;;95.33;70.00;;;;;2.15;100.00;100576.03;6276207;20;3657555;-43
2024/02/01 07:18:14;;;;;;;;;92.00;71.67;;;;;2.53;100.00;100579.94;6308137;20;3635694;-45
2024/02/01 07:20:54;;;;;;;;;101.67;78.67;;;;;2.18;100.00;100570.69;6309412;20;3679978;-44
2024/02/01 07:23:34;;;;;;;;;97.50;76.00;;;;;2.61;100.00;100570.97;6278858;20;2724282;-44
2024/02/01 07:26:16;;;;;;;;;101.33;77.00;;;;;2.57;100.00;100578.97;6275862;20;3690091;-43
2024/02/01 07:59:58;;;;;;;;;87.67;64.67;;;;;2.06;100.00;100539.94;6308496;20;3640877;-45
2024/02/01 08:08:08;;;;;;;;;89.00;68.33;;;;;2.32;100.00;100550.19;6309268;20;3641903;-44
2024/02/01 08:10:37;;;;;;;;;89.33;66.67;;;;;2.52;100.00;100546.38;6309092;20;3641929;-44
2024/02/01 08:13:08;;;;;;;;;86.33;67.33;;;;;2.27;100.00;100535.25;6304530;20;3619139;-43
2024/02/01 08:15:41;;;;;;;;;89.67;68.33;;;;;2.14;100.00;100539.84;6306999;20;3643004;-47
2024/02/01 08:18:12;;;;;;;;;90.00;65.33;;;;;2.29;100.00;100525.50;6308891;20;3638836;-44
2024/02/01 08:20:42;;;;;;;;;82.67;62.00;;;;;2.38;100.00;100534.19;6309121;20;3622201;-44
2024/02/01 08:23:23;;;;;;;;;87.67;66.00;;;;;2.40;100.00;100524.47;6308470;20;3645503;-45
2024/02/01 08:25:53;;;;;;;;;83.67;64.33;;;;;2.23;100.00;100515.84;6306936;20;3650258;-45
2024/02/01 08:28:32;;;;;;;;;87.00;66.33;;;;;2.28;100.00;100511.38;6306563;20;3648174;-45
2024/02/01 08:31:04;;;;;;;;;92.33;68.00;;;;;2.44;100.00;100511.16;6305559;20;3645079;-44
2024/02/01 08:33:33;;;;;;;;;83.00;66.50;;;;;1.96;100.00;100494.16;6308157;20;2870068;-44
2024/02/01 08:36:04;;;;;;;;;90.00;68.00;;;;;2.22;100.00;100495.56;6276347;20;3648221;-45
2024/02/01 08:38:36;;;;;;;;;86.67;69.00;;;;;2.34;100.00;100500.72;6309483;20;3631505;-44
2024/02/01 08:41:06;;;;;;;;;94.00;67.67;;;;;2.24;100.00;100496.44;6306723;20;3650251;-46
2024/02/01 08:43:38;;;;;;;;;95.00;67.67;;;;;2.36;100.00;100496.22;6307885;20;3662753;-45
2024/02/01 08:46:08;;;;;;;;;90.67;69.33;;;;;2.27;100.00;100488.44;6274584;20;3653492;-47
2024/02/01 08:48:39;;;;;;;;;95.00;70.00;;;;;2.41;100.00;100481.16;6308406;20;3648206;-44
2024/02/01 08:51:09;;;;;;;;;93.67;70.33;;;;;2.64;100.00;100487.88;6308441;20;3647150;-46
2024/02/01 08:53:43;;;;;;;;;92.33;70.67;;;;;2.67;100.00;100490.47;6306854;20;3648685;-45
2024/02/01 08:56:13;;;;;;;;;97.00;70.00;;;;;2.62;100.00;100479.94;6310067;20;3678348;-45
2024/02/01 08:58:43;;;;;;;;;91.67;67.67;;;;;2.66;100.00;100485.19;6275574;20;2880570;-44
2024/02/01 09:01:27;;;;;;;;;88.00;68.00;;;;;2.83;100.00;100485.78;6307678;20;3625433;-44
2024/02/01 09:03:57;;;;;;;;;95.33;68.67;;;;;2.94;100.00;100474.97;6307907;20;3660657;-44
2024/02/01 09:06:27;;;;;;;;;98.33;77.33;;;;;3.07;100.00;100473.84;6308714;20;3672130;-44
2024/02/01 09:08:57;;;;;;;;;95.67;77.00;;;;;3.12;100.00;100482.63;6275842;20;3660665;-45
2024/02/01 09:11:28;;;;;;;;;94.67;71.33;;;;;2.92;100.00;100472.34;6274987;20;3660772;-44
2024/02/01 09:14:00;;;;;;;;;101.00;82.00;;;;;2.76;100.00;100471.72;6308369;20;3697109;-46
2024/02/01 09:16:32;;;;;;;;;161.00;138.50;;;;;2.80;100.00;100476.09;6276205;20;3618085;-45
2024/02/01 09:19:02;;;;;;;;;92.67;69.67;;;;;2.98;100.00;100474.03;6272853;20;3655640;-43
2024/02/01 09:21:34;;;;;;;;;107.33;85.33;;;;;2.97;100.00;100485.53;6309866;20;3695086;-44
2024/02/01 09:24:04;;;;;;;;;116.67;98.33;;;;;2.90;100.00;100475.91;6271066;20;3698252;-44
2024/02/01 09:26:34;;;;;;;;;99.67;76.33;;;;;3.22;100.00;100491.28;6276581;20;3684090;-43
2024/02/01 09:29:11;;;;;;;;;92.67;73.00;;;;;3.52;97.94;100480.06;6272114;20;3642991;-45
2024/02/01 09:31:42;;;;;;;;;97.00;77.00;;;;;3.64;98.20;100473.66;6308860;20;3675276;-43
2024/02/01 09:34:14;;;;;;;;;97.00;82.00;;;;;3.71;97.45;100464.66;6272911;20;3665410;-44
2024/02/01 09:36:45;;;;;;;;;98.33;82.67;;;;;3.69;96.53;100465.59;6275630;20;3672131;-45
2024/02/01 09:39:16;;;;;;;;;96.33;76.33;;;;;3.71;95.69;100464.66;6277167;20;3670070;-44
2024/02/01 09:41:46;;;;;;;;;100.33;78.33;;;;;3.42;97.60;100474.97;6273849;20;3696071;-44
2024/02/01 09:44:16;;;;;;;;;98.50;86.25;;;;;3.16;99.34;100454.22;6273554;20;3661778;-43
2024/02/01 09:46:46;;;;;;;;;99.67;82.67;;;;;3.45;98.19;100464.28;6304602;20;3684610;-43
2024/02/01 09:49:16;;;;;;;;;93.33;76.33;;;;;3.94;95.01;100455.28;6274017;20;3658608;-44
2024/02/01 09:51:56;;;;;;;;;98.33;84.00;;;;;3.84;94.17;100453.75;6270859;20;3672159;-44
2024/02/01 09:54:27;;;;;;;;;125.75;110.75;;;;;4.21;92.31;100450.25;6270920;20;4468966;-44
2024/02/01 09:56:57;;;;;;;;;60.00;36.33;;;;;3.71;94.32;100454.03;6275909;20;2891087;-45
2024/02/01 09:59:34;;;;;;;;;96.00;79.00;;;;;3.83;96.33;100444.91;6305549;20;3665896;-45
2024/02/01 10:02:04;;;;;;;;;97.67;85.00;;;;;3.73;96.36;100441.56;6270447;20;3661716;-45
2024/02/01 10:04:34;;;;;;;;;95.00;74.67;;;;;3.66;96.94;100433.75;6270585;20;3658691;-43
2024/02/01 10:07:04;;;;;;;;;92.00;74.33;;;;;3.84;96.93;100432.50;6273905;20;3670060;-43
2024/02/01 10:09:34;;;;;;;;;96.67;78.33;;;;;4.05;95.66;100432.00;6273661;20;3675645;-46
2024/02/01 10:12:06;;;;;;;;;95.67;79.67;;;;;3.80;96.80;100428.19;6276413;20;3665068;-44
2024/02/01 10:14:37;;;;;;;;;97.00;82.00;;;;;4.25;94.90;100436.88;6275603;20;3666916;-43
2024/02/01 10:17:11;;;;;;;;;105.33;83.33;;;;;3.96;94.52;100435.75;6276991;20;3701270;-45
2024/02/01 10:19:42;;;;;;;;;105.67;83.67;;;;;4.04;94.94;100419.66;6270917;20;3695142;-46
2024/02/01 10:22:12;;;;;;;;;102.67;85.00;;;;;4.22;93.25;100422.78;6271777;20;3686167;-44
2024/02/01 10:24:46;;;;;;;;;92.33;81.33;;;;;4.14;94.07;100421.19;6274687;20;3656541;-44
2024/02/01 10:27:19;;;;;;;;;100.67;79.67;;;;;4.33;91.37;100415.44;6306449;20;3695049;-43
2024/02/01 10:29:49;;;;;;;;;98.67;83.67;;;;;4.45;92.44;100417.81;6272021;20;3668985;-44
2024/02/01 10:32:26;;;;;;;;;98.33;89.33;;;;;5.02;91.23;100409.19;6275969;20;3639866;-47
2024/02/01 10:34:57;;;;;;;;;95.33;77.67;;;;;5.14;86.48;100413.31;6305335;20;3687774;-46
2024/02/01 10:37:32;;;;;;;;;96.67;76.33;;;;;5.79;84.39;100404.31;6277500;20;3676294;-44
2024/02/01 10:40:07;;;;;;;;;97.33;81.33;;;;;5.50;85.25;100397.19;6277994;20;3675266;-45
2024/02/01 10:42:39;;;;;;;;;95.67;81.67;;;;;5.92;84.94;100389.72;6278238;20;3662740;-46
2024/02/01 10:45:12;;;;;;;;;96.33;84.00;;;;;6.08;82.75;100394.59;6277875;20;3678452;-45
2024/02/01 10:47:47;;;;;;;;;93.00;74.67;;;;;5.61;83.12;100384.47;6280039;20;3672184;-46
2024/02/01 10:50:18;;;;;;;;;98.33;83.00;;;;;5.77;84.12;100378.69;6276925;20;3687744;-44
2024/02/01 10:52:50;;;;;;;;;100.00;82.00;;;;;5.88;83.41;100373.88;6277039;20;3679412;-46
2024/02/01 10:55:22;;;;;;;;;97.00;84.00;;;;;6.01;83.15;100361.94;6277377;20;3677348;-43
2024/02/01 10:57:52;;;;;;;;;93.50;79.75;;;;;6.09;82.05;100361.69;6278478;20;4423163;-45
2024/02/01 11:00:22;;;;;;;;;92.67;81.67;;;;;5.92;83.12;100352.41;6308966;20;3659744;-44
2024/02/01 11:02:52;;;;;;;;;93.00;76.33;;;;;5.67;84.95;100354.09;6274501;20;3650344;-44
2024/02/01 11:05:30;;;;;;;;;93.00;78.33;;;;;6.17;83.89;100353.44;6276947;20;3676363;-44
2024/02/01 11:08:02;;;;;;;;;93.00;82.33;;;;;6.20;83.01;100356.88;6279339;20;3647120;-43
2024/02/01 11:10:32;;;;;;;;;92.00;79.00;;;;;6.50;80.85;100355.00;6275092;20;3682658;-44
2024/02/01 11:13:03;;;;;;;;;92.00;75.67;;;;;6.82;80.20;100350.34;6278381;20;3668017;-44
2024/02/01 11:15:33;;;;;;;;;92.33;82.67;;;;;6.71;79.80;100342.69;6280285;20;3665907;-44
2024/02/01 11:18:12;;;;;;;;;91.33;78.00;;;;;6.62;81.35;100343.00;6279852;20;3664872;-44
2024/02/01 11:21:03;;;;;;;;;98.67;80.67;;;;;6.88;80.33;100342.09;6273722;20;3668005;-44
2024/02/01 11:23:40;;;;;;;;;91.33;80.33;;;;;7.18;80.54;100334.75;6277728;20;3661863;-44
2024/02/01 11:26:15;;;;;;;;;95.33;85.67;;;;;7.08;80.09;100336.00;6277907;20;3662754;-43
2024/02/01 11:28:47;;;;;;;;;82.67;69.00;;;;;6.68;81.13;100337.44;6275992;20;3656884;-44
2024/02/01 11:31:17;;;;;;;;;85.67;73.67;;;;;7.02;80.33;100331.78;6278697;20;3658606;-44
2024/02/01 11:33:56;;;;;;;;;94.67;81.00;;;;;7.29;80.34;100321.00;6274227;20;3674467;-47
2024/02/01 11:36:25;;;;;;;;;87.67;79.33;;;;;6.96;79.51;100321.34;6277885;20;3665890;-44
2024/02/01 11:38:55;;;;;;;;;91.67;84.00;;;;;7.03;80.23;100312.19;6279825;20;3663848;-44
2024/02/01 11:41:25;;;;;;;;;89.67;71.00;;;;;6.79;80.64;100316.63;6280603;20;3680448;-45
2024/02/01 11:43:55;;;;;;;;;90.33;78.00;;;;;6.36;83.48;100307.44;6277599;20;3674207;-44
2024/02/01 11:46:26;;;;;;;;;90.33;76.33;;;;;6.64;83.06;100310.97;6278011;20;3672122;-44